createdAt,value
2022-10-12T00:04:26.048Z,102261.78
2022-10-12T00:09:29.019Z,102252.81
2022-10-12T00:14:31.136Z,102261.94
2022-10-12T00:19:33.283Z,102259.94
2022-10-12T00:24:40.606Z,102266.72
2022-10-12T00:29:44.675Z,102257.16
2022-10-12T00:34:46.316Z,102255.97
2022-10-12T00:39:49.614Z,102263.63
2022-10-12T00:44:51.837Z,102258.88
2022-10-12T00:49:58.009Z,102268.03
2022-10-12T00:55:01.742Z,102267.13
2022-10-12T01:00:06.766Z,102264.56
2022-10-12T01:05:09.593Z,102278.22
2022-10-12T01:10:13.495Z,102271.91
2022-10-12T01:15:16.011Z,102271.47
2022-10-12T01:20:34.534Z,102265.38
2022-10-12T01:25:50.054Z,102264.44
2022-10-12T01:30:59.520Z,102271.41
2022-10-12T01:36:09.731Z,102274.72
2022-10-12T01:41:18.285Z,102278.91
2022-10-12T01:46:55.356Z,102270.38
2022-10-12T01:52:32.111Z,102271.59
2022-10-12T01:58:00.777Z,102279.38
2022-10-12T02:03:16.097Z,102278.94
2022-10-12T02:08:26.417Z,102264.38
2022-10-12T02:13:35.883Z,102271.25
2022-10-12T02:18:45.925Z,102262.44
2022-10-12T02:23:53.756Z,102257.72
2022-10-12T02:28:59.088Z,102266.53
2022-10-12T02:34:12.055Z,102261.81
2022-10-12T02:39:24.509Z,102256.59
2022-10-12T02:44:32.809Z,102255.31
2022-10-12T02:49:44.627Z,102253.38
2022-10-12T02:54:49.382Z,102247.84
2022-10-12T02:59:52.282Z,102246.25
2022-10-12T03:04:55.573Z,102251.09
2022-10-12T03:09:59.856Z,102253.06
2022-10-12T03:15:05.572Z,102251.19
2022-10-12T03:20:13.238Z,102246.38
2022-10-12T03:25:18.859Z,102238.91
2022-10-12T03:30:24.040Z,102243.19
2022-10-12T03:35:27.687Z,102242.28
2022-10-12T03:40:30.485Z,102228.66
2022-10-12T03:45:32.787Z,102236.72
2022-10-12T03:50:40.676Z,102227.22
2022-10-12T03:55:44.983Z,102234.41
2022-10-12T04:00:46.934Z,102238.28
2022-10-12T04:05:54.781Z,102238.06
2022-10-12T04:10:57.026Z,102237.88
2022-10-12T04:16:02.270Z,102239.97
2022-10-12T04:21:09.274Z,102239.13
2022-10-12T04:26:11.259Z,102248.72
2022-10-12T04:31:13.010Z,102244.53
2022-10-12T04:36:16.289Z,102237.84
2022-10-12T04:41:18.289Z,102249.78
2022-10-12T04:46:20.396Z,102251.81
2022-10-12T04:51:23.838Z,102250.34
2022-10-12T04:56:26.143Z,102250.09
2022-10-12T05:01:28.201Z,102257.13
2022-10-12T05:06:31.594Z,102253.75
2022-10-12T05:11:33.232Z,102242.03
2022-10-12T05:16:34.905Z,102248.44
2022-10-12T05:21:37.904Z,102249.78
2022-10-12T05:26:40.281Z,102249.78
2022-10-12T05:31:41.961Z,102243.97
2022-10-12T05:36:45.363Z,102249.13
2022-10-12T05:41:47.398Z,102252.69
2022-10-12T05:46:49.083Z,102257.03
2022-10-12T05:51:52.475Z,102262.56
2022-10-12T05:56:54.544Z,102251.31
2022-10-12T06:01:56.308Z,102263.63
2022-10-12T06:06:59.685Z,102269.97
2022-10-12T06:12:01.441Z,102274.00
2022-10-12T06:17:03.488Z,102278.44
2022-10-12T06:22:07.600Z,102276.75
2022-10-12T06:27:09.658Z,102279.97
2022-10-12T06:32:11.506Z,102270.28
2022-10-12T06:37:37.067Z,102269.38
2022-10-12T06:42:36.426Z,102280.56
2022-10-12T06:47:38.365Z,102279.16
2022-10-12T06:52:41.464Z,102283.84
2022-10-12T06:57:43.206Z,102289.06
2022-10-12T07:02:45.143Z,102285.50
2022-10-12T07:07:48.090Z,102290.69
2022-10-12T07:12:49.702Z,102290.59
2022-10-12T07:17:51.383Z,102290.66
2022-10-12T07:22:54.365Z,102283.22
2022-10-12T07:27:56.264Z,102281.38
2022-10-12T07:32:58.340Z,102281.97
2022-10-12T07:38:01.681Z,102282.13
2022-10-12T07:43:15.776Z,102284.81
2022-10-12T07:48:18.101Z,102283.72
2022-10-12T07:53:21.559Z,102280.31
2022-10-12T07:58:23.295Z,102279.31
2022-10-12T08:03:24.935Z,102279.28
2022-10-12T08:08:27.911Z,102273.75
2022-10-12T08:13:30.108Z,102280.69
2022-10-12T08:18:32.123Z,102283.06
2022-10-12T08:23:36.819Z,102280.25
2022-10-12T08:28:39.003Z,102274.88
2022-10-12T08:33:41.246Z,102278.91
2022-10-12T08:38:44.458Z,102277.69
2022-10-12T08:44:02.607Z,102271.13
2022-10-12T08:49:08.580Z,102268.91
2022-10-12T08:54:14.279Z,102269.38
2022-10-12T08:59:19.086Z,102274.13
2022-10-12T09:04:40.456Z,102271.91
2022-10-12T09:09:56.410Z,102257.25
2022-10-12T09:15:02.193Z,102265.47
2022-10-12T09:20:10.929Z,102254.22
2022-10-12T09:25:15.618Z,102255.22
2022-10-12T09:30:20.132Z,102253.53
2022-10-12T09:35:22.570Z,102250.94
2022-10-12T09:40:28.970Z,102243.00
2022-10-12T09:45:33.293Z,102238.47
2022-10-12T09:50:40.423Z,102239.53
2022-10-12T09:55:53.578Z,102238.59
2022-10-12T10:01:18.576Z,102229.25
2022-10-12T10:06:24.797Z,102230.78
2022-10-12T10:11:29.038Z,102229.31
2022-10-12T10:16:31.003Z,102211.06
2022-10-12T10:21:35.037Z,102213.22
2022-10-12T10:26:55.048Z,102218.31
2022-10-12T10:32:08.479Z,102206.72
2022-10-12T10:37:17.182Z,102198.13
2022-10-12T10:42:25.617Z,102212.22
2022-10-12T10:47:29.114Z,102201.94
2022-10-12T10:52:33.379Z,102202.91
2022-10-12T10:57:40.310Z,102197.28
2022-10-12T11:02:48.860Z,102196.25
2022-10-12T11:07:53.848Z,102197.75
2022-10-12T11:13:03.189Z,102181.56
2022-10-12T11:18:14.115Z,102171.34
2022-10-12T11:23:24.919Z,102155.75
2022-10-12T11:28:30.998Z,102158.09
2022-10-12T11:33:36.891Z,102144.22
2022-10-12T11:38:42.372Z,102141.56
2022-10-12T11:43:51.213Z,102133.50
2022-10-12T11:48:58.460Z,102149.25
2022-10-12T11:54:08.774Z,102124.66
2022-10-12T11:59:19.180Z,102124.16
2022-10-12T12:04:41.643Z,102118.50
2022-10-12T12:09:50.116Z,102110.91
2022-10-12T12:15:22.164Z,102103.69
2022-10-12T12:21:01.654Z,102097.06
2022-10-12T12:26:23.348Z,102095.09
2022-10-12T12:31:28.148Z,102088.69
2022-10-12T12:36:33.465Z,102097.53
2022-10-12T12:41:55.126Z,102100.16
2022-10-12T12:52:40.094Z,102086.00
2022-10-12T12:58:01.153Z,102076.56
2022-10-12T13:03:44.625Z,102076.16
2022-10-12T13:09:01.824Z,102072.44
2022-10-12T13:14:19.639Z,102068.59
2022-10-12T13:19:24.348Z,102058.53
2022-10-12T13:24:30.043Z,102058.41
2022-10-12T13:29:36.351Z,102053.97
2022-10-12T13:34:43.615Z,102049.63
2022-10-12T13:39:46.118Z,102049.03
2022-10-12T13:44:48.878Z,102049.47
2022-10-12T13:49:52.489Z,102047.22
2022-10-12T13:54:54.676Z,102042.63
2022-10-12T13:59:59.145Z,102039.56
2022-10-12T14:05:04.045Z,102021.66
2022-10-12T14:10:08.927Z,102012.91
2022-10-12T14:15:13.943Z,102015.63
2022-10-12T14:20:27.013Z,102009.88
2022-10-12T14:25:30.434Z,102002.72
2022-10-12T14:30:35.114Z,102005.09
2022-10-12T14:35:39.784Z,102007.25
2022-10-12T14:40:42.248Z,102002.91
2022-10-12T14:45:44.535Z,101994.22
2022-10-12T14:50:47.852Z,101990.97
2022-10-12T14:55:53.781Z,101995.25
2022-10-12T15:00:57.561Z,101986.94
2022-10-12T15:06:02.949Z,101993.13
2022-10-12T15:11:05.106Z,101988.16
2022-10-12T15:16:18.583Z,101975.00
2022-10-12T15:21:22.202Z,101970.72
2022-10-12T15:26:24.497Z,101963.03
2022-10-12T15:31:26.180Z,101962.41
2022-10-12T15:36:29.755Z,101963.56
2022-10-12T15:41:32.394Z,101962.16
2022-10-12T15:46:34.144Z,101954.41
2022-10-12T15:51:40.521Z,101951.13
2022-10-12T15:56:42.655Z,101960.22
2022-10-12T16:01:44.576Z,101957.66
2022-10-12T16:06:47.912Z,101955.97
2022-10-12T16:11:50.189Z,101962.25
2022-10-12T16:16:51.908Z,101954.28
2022-10-12T16:21:55.418Z,101953.28
2022-10-12T16:26:57.475Z,101950.50
2022-10-12T16:31:59.480Z,101959.22
2022-10-12T16:37:02.915Z,101956.34
2022-10-12T16:42:05.039Z,101945.47
2022-10-12T16:47:06.706Z,101954.97
2022-10-12T16:52:09.693Z,101953.00
2022-10-12T16:57:11.506Z,101944.81
2022-10-12T17:02:14.434Z,101950.81
2022-10-12T17:07:17.766Z,101948.88
2022-10-12T17:12:20.096Z,101950.47
2022-10-12T17:17:22.206Z,101955.56
2022-10-12T17:22:25.737Z,101946.47
2022-10-12T17:27:32.084Z,101947.06
2022-10-12T17:32:34.002Z,101953.25
2022-10-12T17:37:37.475Z,101939.66
2022-10-12T17:42:39.371Z,101939.03
2022-10-12T17:47:41.247Z,101933.75
2022-10-12T17:52:44.573Z,101930.19
2022-10-12T17:57:46.401Z,101933.56
2022-10-12T18:02:48.290Z,101926.28
2022-10-12T18:07:51.908Z,101933.13
2022-10-12T18:12:54.427Z,101926.75
2022-10-12T18:17:59.784Z,101916.88
2022-10-12T18:23:02.878Z,101920.31
2022-10-12T18:28:05.159Z,101916.66
2022-10-12T18:33:07.180Z,101917.38
2022-10-12T18:38:11.026Z,101917.75
2022-10-12T18:43:14.108Z,101909.47
2022-10-12T18:48:15.942Z,101913.75
2022-10-12T18:53:19.248Z,101909.22
2022-10-12T18:58:21.385Z,101902.81
2022-10-12T19:03:24.506Z,101914.88
2022-10-12T19:08:28.996Z,101914.63
2022-10-12T19:13:31.118Z,101902.03
2022-10-12T19:18:33.326Z,101904.44
2022-10-12T19:23:37.632Z,101905.94
2022-10-12T19:28:41.172Z,101900.38
2022-10-12T19:33:43.701Z,101900.19
2022-10-12T19:38:47.457Z,101899.94
2022-10-12T19:43:49.739Z,101894.41
2022-10-12T19:48:53.259Z,101895.88
2022-10-12T19:53:58.581Z,101894.75
2022-10-12T19:59:00.319Z,101895.41
2022-10-12T20:04:04.337Z,101885.38
2022-10-12T20:09:08.342Z,101875.47
2022-10-12T20:14:10.921Z,101873.38
2022-10-12T20:19:12.622Z,101884.88
2022-10-12T20:24:16.010Z,101877.59
2022-10-12T20:29:18.674Z,101880.94
2022-10-12T20:34:20.614Z,101879.03
2022-10-12T20:39:23.766Z,101864.59
2022-10-12T20:44:26.504Z,101862.53
2022-10-12T20:49:28.621Z,101862.38
2022-10-12T20:54:31.687Z,101849.94
2022-10-12T20:59:33.885Z,101842.50
2022-10-12T21:04:38.385Z,101848.75
2022-10-12T21:09:41.900Z,101844.34
2022-10-12T21:14:43.585Z,101845.44
2022-10-12T21:19:45.478Z,101844.66
2022-10-12T21:24:48.500Z,101845.16
2022-10-12T21:29:50.671Z,101843.22
2022-10-12T21:34:52.344Z,101848.94
2022-10-12T21:39:55.554Z,101847.66
2022-10-12T21:44:57.736Z,101840.22
2022-10-12T21:49:59.683Z,101840.28
2022-10-12T21:55:03.324Z,101839.94
2022-10-12T22:00:06.065Z,101840.22
2022-10-12T22:05:08.321Z,101841.47
2022-10-12T22:10:12.308Z,101840.38
2022-10-12T22:15:14.125Z,101841.28
2022-10-12T22:20:16.196Z,101831.41
2022-10-12T22:25:19.864Z,101823.44
2022-10-12T22:30:22.088Z,101823.22
2022-10-12T22:35:24.345Z,101827.25
2022-10-12T22:40:27.735Z,101822.69
2022-10-12T22:45:31.039Z,101818.13
2022-10-12T22:50:33.666Z,101826.94
2022-10-12T22:55:37.086Z,101821.78
2022-10-12T23:00:39.580Z,101820.28
2022-10-12T23:05:48.694Z,101815.78
2022-10-12T23:10:52.276Z,101814.84
2022-10-12T23:15:54.425Z,101814.53
2022-10-12T23:20:56.553Z,101808.16
2022-10-12T23:26:00.584Z,101798.22
2022-10-12T23:31:03.149Z,101808.50
2022-10-12T23:36:07.350Z,101804.16
2022-10-12T23:41:12.211Z,101798.63
2022-10-12T23:46:14.405Z,101795.50
2022-10-12T23:51:16.705Z,101793.31
2022-10-12T23:56:20.747Z,101800.53
